sensor_id;sensor_type;location;lat;lon;timestamp;pressure;altitude;pressure_sealevel;temperature;humidity
60246;BME280;46107;53.356;-1.524;2023-02-28T00:01:21;100752.33;;;3.86;82.71
60246;BME280;46107;53.356;-1.524;2023-02-28T00:03:49;100753.68;;;4.22;80.97
60246;BME280;46107;53.356;-1.524;2023-02-28T00:06:17;100754.31;;;3.14;86.02
60246;BME280;46107;53.356;-1.524;2023-02-28T00:08:45;100756.09;;;4.19;81.50
60246;BME280;46107;53.356;-1.524;2023-02-28T00:11:13;100758.31;;;4.20;80.53
60246;BME280;46107;53.356;-1.524;2023-02-28T00:13:44;100759.38;;;4.18;79.29
60246;BME280;46107;53.356;-1.524;2023-02-28T00:16:14;100754.79;;;3.68;81.71
60246;BME280;46107;53.356;-1.524;2023-02-28T00:18:42;100763.35;;;2.56;88.51
60246;BME280;46107;53.356;-1.524;2023-02-28T00:21:10;100756.88;;;3.84;84.36
60246;BME280;46107;53.356;-1.524;2023-02-28T00:23:38;100757.25;;;3.41;83.03
60246;BME280;46107;53.356;-1.524;2023-02-28T00:26:06;100757.04;;;3.69;82.88
60246;BME280;46107;53.356;-1.524;2023-02-28T00:28:34;100763.43;;;4.23;82.31
60246;BME280;46107;53.356;-1.524;2023-02-28T00:31:02;100765.71;;;3.14;85.82
60246;BME280;46107;53.356;-1.524;2023-02-28T00:33:29;100768.84;;;3.09;83.40
60246;BME280;46107;53.356;-1.524;2023-02-28T00:36:05;100766.54;;;3.47;85.79
60246;BME280;46107;53.356;-1.524;2023-02-28T00:38:33;100763.65;;;4.17;81.65
60246;BME280;46107;53.356;-1.524;2023-02-28T00:41:01;100765.15;;;3.49;85.50
60246;BME280;46107;53.356;-1.524;2023-02-28T00:43:30;100766.42;;;3.38;85.02
60246;BME280;46107;53.356;-1.524;2023-02-28T00:45:58;100761.12;;;3.79;83.17
60246;BME280;46107;53.356;-1.524;2023-02-28T00:48:26;100768.21;;;3.71;82.73
60246;BME280;46107;53.356;-1.524;2023-02-28T00:50:53;100771.54;;;3.90;82.06
60246;BME280;46107;53.356;-1.524;2023-02-28T00:53:21;100771.98;;;4.15;80.25
60246;BME280;46107;53.356;-1.524;2023-02-28T00:55:49;100772.61;;;2.93;85.21
60246;BME280;46107;53.356;-1.524;2023-02-28T00:58:16;100777.35;;;2.99;84.70
60246;BME280;46107;53.356;-1.524;2023-02-28T01:00:44;100776.96;;;4.74;78.66
60246;BME280;46107;53.356;-1.524;2023-02-28T01:03:11;100774.55;;;4.15;80.86
60246;BME280;46107;53.356;-1.524;2023-02-28T01:05:39;100770.35;;;3.30;83.84
60246;BME280;46107;53.356;-1.524;2023-02-28T01:08:07;100772.35;;;3.69;83.68
60246;BME280;46107;53.356;-1.524;2023-02-28T01:10:34;100775.56;;;3.39;84.16
60246;BME280;46107;53.356;-1.524;2023-02-28T01:13:02;100770.90;;;3.75;83.57
60246;BME280;46107;53.356;-1.524;2023-02-28T01:15:30;100771.45;;;3.06;86.93
60246;BME280;46107;53.356;-1.524;2023-02-28T01:17:58;100777.55;;;2.57;86.35
60246;BME280;46107;53.356;-1.524;2023-02-28T01:20:26;100766.91;;;3.39;85.25
60246;BME280;46107;53.356;-1.524;2023-02-28T01:22:53;100767.88;;;3.17;85.29
60246;BME280;46107;53.356;-1.524;2023-02-28T01:25:21;100765.78;;;3.49;84.48
60246;BME280;46107;53.356;-1.524;2023-02-28T01:27:49;100764.41;;;4.06;82.10
60246;BME280;46107;53.356;-1.524;2023-02-28T01:30:17;100766.10;;;3.28;85.87
60246;BME280;46107;53.356;-1.524;2023-02-28T01:32:45;100772.68;;;2.45;88.90
60246;BME280;46107;53.356;-1.524;2023-02-28T01:35:12;100764.19;;;3.26;85.90
60246;BME280;46107;53.356;-1.524;2023-02-28T01:37:39;100766.60;;;3.16;83.65
60246;BME280;46107;53.356;-1.524;2023-02-28T01:40:08;100764.82;;;4.14;81.31
60246;BME280;46107;53.356;-1.524;2023-02-28T01:42:36;100767.87;;;4.38;79.12
60246;BME280;46107;53.356;-1.524;2023-02-28T01:45:19;100765.95;;;4.17;79.62
60246;BME280;46107;53.356;-1.524;2023-02-28T01:47:49;100761.89;;;3.25;81.39
60246;BME280;46107;53.356;-1.524;2023-02-28T01:50:20;100756.81;;;3.19;81.70
60246;BME280;46107;53.356;-1.524;2023-02-28T01:52:49;100759.66;;;3.99;78.60
60246;BME280;46107;53.356;-1.524;2023-02-28T01:55:18;100760.80;;;3.78;79.97
60246;BME280;46107;53.356;-1.524;2023-02-28T01:57:50;100767.09;;;3.56;79.87
60246;BME280;46107;53.356;-1.524;2023-02-28T02:00:22;100766.57;;;4.57;77.21
60246;BME280;46107;53.356;-1.524;2023-02-28T02:02:52;100761.66;;;3.31;80.02
60246;BME280;46107;53.356;-1.524;2023-02-28T02:05:23;100763.98;;;4.12;80.91
60246;BME280;46107;53.356;-1.524;2023-02-28T02:07:54;100760.44;;;3.65;77.70
60246;BME280;46107;53.356;-1.524;2023-02-28T02:10:27;100761.98;;;4.25;79.39
60246;BME280;46107;53.356;-1.524;2023-02-28T02:13:10;100757.17;;;4.49;77.56
60246;BME280;46107;53.356;-1.524;2023-02-28T02:15:46;100757.47;;;3.93;79.78
60246;BME280;46107;53.356;-1.524;2023-02-28T02:18:26;100751.78;;;3.37;80.29
60246;BME280;46107;53.356;-1.524;2023-02-28T02:21:24;100763.04;;;2.79;86.28
60246;BME280;46107;53.356;-1.524;2023-02-28T02:26:24;100753.47;;;3.93;82.79
60246;BME280;46107;53.356;-1.524;2023-02-28T02:29:06;100752.74;;;3.64;81.49
60246;BME280;46107;53.356;-1.524;2023-02-28T02:31:57;100756.64;;;3.57;80.44
60246;BME280;46107;53.356;-1.524;2023-02-28T02:34:41;100754.53;;;3.35;82.32
60246;BME280;46107;53.356;-1.524;2023-02-28T02:37:15;100755.10;;;3.68;81.74
60246;BME280;46107;53.356;-1.524;2023-02-28T02:39:50;100754.82;;;2.85;83.71
60246;BME280;46107;53.356;-1.524;2023-02-28T02:42:24;100754.93;;;4.31;79.46
60246;BME280;46107;53.356;-1.524;2023-02-28T02:45:00;100758.53;;;3.37;82.00
60246;BME280;46107;53.356;-1.524;2023-02-28T02:47:30;100760.89;;;3.16;83.85
60246;BME280;46107;53.356;-1.524;2023-02-28T02:50:05;100757.23;;;3.32;83.67
60246;BME280;46107;53.356;-1.524;2023-02-28T02:52:39;100764.07;;;2.50;84.91
60246;BME280;46107;53.356;-1.524;2023-02-28T02:55:09;100758.27;;;4.23;81.52
60246;BME280;46107;53.356;-1.524;2023-02-28T02:57:44;100757.63;;;3.79;82.31
60246;BME280;46107;53.356;-1.524;2023-02-28T03:00:16;100758.81;;;3.14;84.04
60246;BME280;46107;53.356;-1.524;2023-02-28T03:02:48;100749.48;;;3.92;83.15
60246;BME280;46107;53.356;-1.524;2023-02-28T03:05:20;100749.42;;;3.48;81.65
60246;BME280;46107;53.356;-1.524;2023-02-28T03:07:49;100753.50;;;3.20;83.63
60246;BME280;46107;53.356;-1.524;2023-02-28T03:10:36;100753.19;;;3.16;83.37
60246;BME280;46107;53.356;-1.524;2023-02-28T03:13:46;100749.02;;;3.99;82.03
60246;BME280;46107;53.356;-1.524;2023-02-28T03:16:32;100752.83;;;3.99;81.57
60246;BME280;46107;53.356;-1.524;2023-02-28T03:19:22;100753.98;;;3.99;80.09
60246;BME280;46107;53.356;-1.524;2023-02-28T03:22:02;100751.06;;;3.28;81.95
60246;BME280;46107;53.356;-1.524;2023-02-28T03:24:38;100750.57;;;3.83;79.95
60246;BME280;46107;53.356;-1.524;2023-02-28T03:27:16;100749.95;;;3.14;82.44
60246;BME280;46107;53.356;-1.524;2023-02-28T03:29:50;100749.95;;;4.18;79.15
60246;BME280;46107;53.356;-1.524;2023-02-28T03:32:23;100751.08;;;3.48;81.81
60246;BME280;46107;53.356;-1.524;2023-02-28T03:34:57;100750.61;;;3.76;80.13
60246;BME280;46107;53.356;-1.524;2023-02-28T03:37:29;100750.75;;;3.00;81.60
60246;BME280;46107;53.356;-1.524;2023-02-28T03:40:01;100753.30;;;3.74;80.07
60246;BME280;46107;53.356;-1.524;2023-02-28T03:42:35;100753.43;;;2.78;82.57
60246;BME280;46107;53.356;-1.524;2023-02-28T03:45:08;100754.65;;;3.47;81.26
60246;BME280;46107;53.356;-1.524;2023-02-28T03:47:40;100752.99;;;3.24;83.23
60246;BME280;46107;53.356;-1.524;2023-02-28T03:50:12;100754.42;;;3.44;81.64
60246;BME280;46107;53.356;-1.524;2023-02-28T03:52:46;100754.00;;;4.44;78.43
60246;BME280;46107;53.356;-1.524;2023-02-28T03:55:15;100749.71;;;3.69;78.69
60246;BME280;46107;53.356;-1.524;2023-02-28T03:57:50;100745.05;;;3.61;81.98
60246;BME280;46107;53.356;-1.524;2023-02-28T04:00:27;100745.34;;;3.75;80.31
60246;BME280;46107;53.356;-1.524;2023-02-28T04:02:56;100746.24;;;3.08;82.73
60246;BME280;46107;53.356;-1.524;2023-02-28T04:05:24;100746.42;;;2.76;83.28
60246;BME280;46107;53.356;-1.524;2023-02-28T04:07:52;100743.92;;;3.42;83.39
60246;BME280;46107;53.356;-1.524;2023-02-28T04:10:20;100741.62;;;2.89;83.71
60246;BME280;46107;53.356;-1.524;2023-02-28T04:12:48;100741.37;;;3.65;82.10
60246;BME280;46107;53.356;-1.524;2023-02-28T04:15:15;100743.27;;;3.72;81.17
60246;BME280;46107;53.356;-1.524;2023-02-28T04:17:43;100750.85;;;4.05;79.51
60246;BME280;46107;53.356;-1.524;2023-02-28T04:20:10;100753.17;;;3.56;81.47
60246;BME280;46107;53.356;-1.524;2023-02-28T04:22:38;100754.75;;;3.08;85.38
60246;BME280;46107;53.356;-1.524;2023-02-28T04:25:06;100758.73;;;3.79;82.76
60246;BME280;46107;53.356;-1.524;2023-02-28T04:27:34;100758.76;;;3.69;81.97
60246;BME280;46107;53.356;-1.524;2023-02-28T04:30:02;100760.61;;;4.30;80.75
60246;BME280;46107;53.356;-1.524;2023-02-28T04:32:31;100759.16;;;3.59;82.61
60246;BME280;46107;53.356;-1.524;2023-02-28T04:35:05;100762.61;;;3.23;85.37
60246;BME280;46107;53.356;-1.524;2023-02-28T04:37:32;100760.72;;;3.36;83.32
60246;BME280;46107;53.356;-1.524;2023-02-28T04:40:06;100755.76;;;3.48;82.66
60246;BME280;46107;53.356;-1.524;2023-02-28T04:42:34;100759.83;;;4.26;80.47
60246;BME280;46107;53.356;-1.524;2023-02-28T04:45:02;100769.72;;;3.53;82.29
60246;BME280;46107;53.356;-1.524;2023-02-28T04:47:29;100766.57;;;3.54;84.14
60246;BME280;46107;53.356;-1.524;2023-02-28T04:49:57;100764.05;;;3.09;83.97
60246;BME280;46107;53.356;-1.524;2023-02-28T04:52:25;100760.55;;;3.25;84.24
60246;BME280;46107;53.356;-1.524;2023-02-28T04:54:54;100761.73;;;3.50;83.20
60246;BME280;46107;53.356;-1.524;2023-02-28T04:57:21;100757.56;;;3.60;82.58
60246;BME280;46107;53.356;-1.524;2023-02-28T04:59:49;100762.90;;;3.03;86.60
60246;BME280;46107;53.356;-1.524;2023-02-28T05:02:16;100767.66;;;2.27;88.48
60246;BME280;46107;53.356;-1.524;2023-02-28T05:04:44;100759.22;;;3.08;87.48
60246;BME280;46107;53.356;-1.524;2023-02-28T05:07:11;100762.15;;;3.00;88.35
60246;BME280;46107;53.356;-1.524;2023-02-28T05:09:39;100755.99;;;3.22;87.90
60246;BME280;46107;53.356;-1.524;2023-02-28T05:12:07;100760.95;;;2.99;87.52
60246;BME280;46107;53.356;-1.524;2023-02-28T05:14:36;100762.60;;;2.95;86.59
60246;BME280;46107;53.356;-1.524;2023-02-28T05:17:03;100761.58;;;3.78;84.32
60246;BME280;46107;53.356;-1.524;2023-02-28T05:19:30;100768.10;;;2.76;87.98
60246;BME280;46107;53.356;-1.524;2023-02-28T05:21:58;100763.51;;;2.93;86.67
60246;BME280;46107;53.356;-1.524;2023-02-28T05:24:25;100760.16;;;3.20;87.44
60246;BME280;46107;53.356;-1.524;2023-02-28T05:26:53;100759.53;;;3.91;82.77
60246;BME280;46107;53.356;-1.524;2023-02-28T05:29:22;100758.00;;;3.45;83.36
60246;BME280;46107;53.356;-1.524;2023-02-28T05:31:50;100762.87;;;3.89;84.21
60246;BME280;46107;53.356;-1.524;2023-02-28T05:34:17;100759.58;;;3.48;85.22
60246;BME280;46107;53.356;-1.524;2023-02-28T05:36:45;100763.93;;;3.46;86.97
60246;BME280;46107;53.356;-1.524;2023-02-28T05:39:12;100764.85;;;2.75;87.22
60246;BME280;46107;53.356;-1.524;2023-02-28T05:41:42;100766.63;;;2.85;88.22
60246;BME280;46107;53.356;-1.524;2023-02-28T05:44:09;100771.72;;;2.84;88.44
60246;BME280;46107;53.356;-1.524;2023-02-28T05:46:37;100769.83;;;3.28;88.02
60246;BME280;46107;53.356;-1.524;2023-02-28T05:49:04;100763.64;;;3.01;87.55
60246;BME280;46107;53.356;-1.524;2023-02-28T05:51:32;100770.12;;;1.70;91.71
60246;BME280;46107;53.356;-1.524;2023-02-28T05:54:00;100770.17;;;2.23;93.79
60246;BME280;46107;53.356;-1.524;2023-02-28T05:56:29;100771.44;;;2.18;94.39
60246;BME280;46107;53.356;-1.524;2023-02-28T05:58:57;100770.49;;;2.16;94.95
60246;BME280;46107;53.356;-1.524;2023-02-28T06:01:35;100767.55;;;1.63;95.76
60246;BME280;46107;53.356;-1.524;2023-02-28T06:04:05;100768.69;;;2.38;92.82
60246;BME280;46107;53.356;-1.524;2023-02-28T06:06:33;100770.57;;;2.00;94.78
60246;BME280;46107;53.356;-1.524;2023-02-28T06:09:05;100771.98;;;2.03;94.27
60246;BME280;46107;53.356;-1.524;2023-02-28T06:11:33;100772.57;;;2.71;91.58
60246;BME280;46107;53.356;-1.524;2023-02-28T06:14:05;100773.71;;;1.85;94.00
60246;BME280;46107;53.356;-1.524;2023-02-28T06:16:34;100772.40;;;1.97;95.07
60246;BME280;46107;53.356;-1.524;2023-02-28T06:19:03;100768.41;;;2.70;91.90
60246;BME280;46107;53.356;-1.524;2023-02-28T06:21:32;100766.05;;;3.24;90.40
60246;BME280;46107;53.356;-1.524;2023-02-28T06:24:00;100771.90;;;2.52;93.06
60246;BME280;46107;53.356;-1.524;2023-02-28T06:26:29;100770.09;;;1.56;98.18
60246;BME280;46107;53.356;-1.524;2023-02-28T06:28:57;100767.40;;;1.76;98.71
60246;BME280;46107;53.356;-1.524;2023-02-28T06:31:25;100771.51;;;2.24;96.06
60246;BME280;46107;53.356;-1.524;2023-02-28T06:33:53;100773.36;;;1.78;97.86
60246;BME280;46107;53.356;-1.524;2023-02-28T06:36:20;100778.87;;;2.52;93.75
60246;BME280;46107;53.356;-1.524;2023-02-28T06:38:48;100778.83;;;3.02;91.56
60246;BME280;46107;53.356;-1.524;2023-02-28T06:41:15;100779.17;;;2.43;92.09
60246;BME280;46107;53.356;-1.524;2023-02-28T06:43:43;100783.89;;;1.56;98.92
60246;BME280;46107;53.356;-1.524;2023-02-28T06:46:13;100784.38;;;1.77;98.69
60246;BME280;46107;53.356;-1.524;2023-02-28T06:48:42;100786.69;;;1.81;97.63
60246;BME280;46107;53.356;-1.524;2023-02-28T06:51:11;100786.17;;;1.83;99.09
60246;BME280;46107;53.356;-1.524;2023-02-28T06:53:40;100785.96;;;2.51;96.21
60246;BME280;46107;53.356;-1.524;2023-02-28T06:56:10;100788.27;;;1.71;97.28
60246;BME280;46107;53.356;-1.524;2023-02-28T06:58:39;100789.33;;;2.58;95.00
60246;BME280;46107;53.356;-1.524;2023-02-28T07:01:08;100791.71;;;2.55;93.10
60246;BME280;46107;53.356;-1.524;2023-02-28T07:03:36;100793.96;;;1.47;100.00
60246;BME280;46107;53.356;-1.524;2023-02-28T07:06:05;100791.98;;;2.12;96.46
60246;BME280;46107;53.356;-1.524;2023-02-28T07:08:34;100792.94;;;2.07;98.81
60246;BME280;46107;53.356;-1.524;2023-02-28T07:11:03;100798.61;;;1.74;96.13
60246;BME280;46107;53.356;-1.524;2023-02-28T07:13:31;100801.71;;;2.31;95.31
60246;BME280;46107;53.356;-1.524;2023-02-28T07:16:01;100800.47;;;2.53;93.74
60246;BME280;46107;53.356;-1.524;2023-02-28T07:18:30;100803.15;;;2.11;94.76
60246;BME280;46107;53.356;-1.524;2023-02-28T07:20:58;100807.89;;;2.80;93.98
60246;BME280;46107;53.356;-1.524;2023-02-28T07:23:25;100809.82;;;2.34;94.10
60246;BME280;46107;53.356;-1.524;2023-02-28T07:25:53;100812.64;;;1.98;98.06
60246;BME280;46107;53.356;-1.524;2023-02-28T07:28:20;100815.57;;;2.32;94.52
60246;BME280;46107;53.356;-1.524;2023-02-28T07:30:48;100809.97;;;2.42;94.76
60246;BME280;46107;53.356;-1.524;2023-02-28T07:33:15;100816.61;;;2.35;96.27
60246;BME280;46107;53.356;-1.524;2023-02-28T07:35:43;100818.94;;;2.36;94.77
60246;BME280;46107;53.356;-1.524;2023-02-28T07:38:10;100821.06;;;2.24;94.07
60246;BME280;46107;53.356;-1.524;2023-02-28T07:40:38;100815.56;;;2.83;91.81
60246;BME280;46107;53.356;-1.524;2023-02-28T07:43:06;100811.07;;;2.35;93.32
60246;BME280;46107;53.356;-1.524;2023-02-28T07:45:34;100812.69;;;2.24;94.42
60246;BME280;46107;53.356;-1.524;2023-02-28T07:48:02;100817.90;;;2.46;92.30
60246;BME280;46107;53.356;-1.524;2023-02-28T07:50:30;100817.62;;;2.94;90.69
60246;BME280;46107;53.356;-1.524;2023-02-28T07:52:57;100821.01;;;2.32;93.14
60246;BME280;46107;53.356;-1.524;2023-02-28T07:55:25;100817.09;;;2.31;94.47
60246;BME280;46107;53.356;-1.524;2023-02-28T07:57:52;100820.32;;;2.53;95.18
60246;BME280;46107;53.356;-1.524;2023-02-28T08:00:21;100819.12;;;2.64;92.78
60246;BME280;46107;53.356;-1.524;2023-02-28T08:02:48;100815.57;;;2.86;92.53
60246;BME280;46107;53.356;-1.524;2023-02-28T08:05:16;100816.22;;;2.36;93.20
60246;BME280;46107;53.356;-1.524;2023-02-28T08:07:44;100811.31;;;2.51;91.78
60246;BME280;46107;53.356;-1.524;2023-02-28T08:10:12;100814.76;;;2.58;93.68
60246;BME280;46107;53.356;-1.524;2023-02-28T08:12:38;100817.36;;;2.96;91.02
60246;BME280;46107;53.356;-1.524;2023-02-28T08:15:08;100813.84;;;2.75;90.23
60246;BME280;46107;53.356;-1.524;2023-02-28T08:17:35;100808.47;;;3.39;87.14
60246;BME280;46107;53.356;-1.524;2023-02-28T08:20:03;100812.23;;;2.67;90.80
60246;BME280;46107;53.356;-1.524;2023-02-28T08:22:30;100819.40;;;2.56;92.46
60246;BME280;46107;53.356;-1.524;2023-02-28T08:24:58;100811.60;;;3.66;87.12
60246;BME280;46107;53.356;-1.524;2023-02-28T08:27:25;100817.27;;;2.81;90.97
60246;BME280;46107;53.356;-1.524;2023-02-28T08:29:53;100817.74;;;3.03;88.59
60246;BME280;46107;53.356;-1.524;2023-02-28T08:32:21;100814.98;;;2.35;92.97
60246;BME280;46107;53.356;-1.524;2023-02-28T08:34:48;100813.36;;;1.87;95.89
60246;BME280;46107;53.356;-1.524;2023-02-28T08:37:17;100821.09;;;2.49;93.32
60246;BME280;46107;53.356;-1.524;2023-02-28T08:39:44;100823.74;;;2.16;94.19
60246;BME280;46107;53.356;-1.524;2023-02-28T08:42:12;100831.21;;;3.09;93.83
60246;BME280;46107;53.356;-1.524;2023-02-28T08:44:40;100830.70;;;2.83;91.25
60246;BME280;46107;53.356;-1.524;2023-02-28T08:47:08;100828.65;;;2.58;91.88
60246;BME280;46107;53.356;-1.524;2023-02-28T08:49:36;100827.35;;;1.87;96.11
60246;BME280;46107;53.356;-1.524;2023-02-28T08:52:04;100830.56;;;2.18;94.93
60246;BME280;46107;53.356;-1.524;2023-02-28T08:54:31;100828.95;;;2.01;95.00
60246;BME280;46107;53.356;-1.524;2023-02-28T08:57:01;100829.55;;;3.17;91.46
60246;BME280;46107;53.356;-1.524;2023-02-28T08:59:29;100829.57;;;3.81;87.09
60246;BME280;46107;53.356;-1.524;2023-02-28T09:01:57;100834.45;;;2.01;93.37
60246;BME280;46107;53.356;-1.524;2023-02-28T09:04:26;100839.20;;;2.82;91.33
60246;BME280;46107;53.356;-1.524;2023-02-28T09:06:53;100837.93;;;2.51;93.06
60246;BME280;46107;53.356;-1.524;2023-02-28T09:09:21;100837.21;;;2.91;92.38
60246;BME280;46107;53.356;-1.524;2023-02-28T09:11:49;100843.33;;;2.35;94.04
60246;BME280;46107;53.356;-1.524;2023-02-28T09:14:16;100841.78;;;2.81;93.00
60246;BME280;46107;53.356;-1.524;2023-02-28T09:16:44;100839.78;;;2.70;92.31
60246;BME280;46107;53.356;-1.524;2023-02-28T09:19:12;100845.76;;;3.08;90.35
60246;BME280;46107;53.356;-1.524;2023-02-28T09:21:39;100843.94;;;2.36;92.47
60246;BME280;46107;53.356;-1.524;2023-02-28T09:24:08;100846.77;;;2.67;93.92
60246;BME280;46107;53.356;-1.524;2023-02-28T09:26:37;100840.98;;;1.65;98.19
60246;BME280;46107;53.356;-1.524;2023-02-28T09:29:05;100844.95;;;2.73;92.41
60246;BME280;46107;53.356;-1.524;2023-02-28T09:31:33;100840.10;;;3.75;87.41
60246;BME280;46107;53.356;-1.524;2023-02-28T09:34:01;100845.77;;;3.53;87.72
60246;BME280;46107;53.356;-1.524;2023-02-28T09:36:28;100843.07;;;3.73;86.27
60246;BME280;46107;53.356;-1.524;2023-02-28T09:38:55;100852.22;;;3.06;92.41
60246;BME280;46107;53.356;-1.524;2023-02-28T09:41:24;100846.97;;;1.88;94.40
60246;BME280;46107;53.356;-1.524;2023-02-28T09:43:56;100848.45;;;2.15;96.28
60246;BME280;46107;53.356;-1.524;2023-02-28T09:46:32;100852.31;;;2.38;95.15
60246;BME280;46107;53.356;-1.524;2023-02-28T09:49:07;100851.76;;;3.65;90.43
60246;BME280;46107;53.356;-1.524;2023-02-28T09:51:48;100846.68;;;3.45;88.21
60246;BME280;46107;53.356;-1.524;2023-02-28T09:54:19;100848.33;;;2.98;91.29
60246;BME280;46107;53.356;-1.524;2023-02-28T09:56:50;100851.06;;;3.34;89.97
60246;BME280;46107;53.356;-1.524;2023-02-28T09:59:28;100853.49;;;3.03;89.77
60246;BME280;46107;53.356;-1.524;2023-02-28T10:02:08;100858.18;;;3.65;89.39
60246;BME280;46107;53.356;-1.524;2023-02-28T10:04:46;100865.12;;;3.53;89.64
60246;BME280;46107;53.356;-1.524;2023-02-28T10:07:21;100866.64;;;3.17;89.47
60246;BME280;46107;53.356;-1.524;2023-02-28T10:09:55;100868.37;;;3.48;89.03
60246;BME280;46107;53.356;-1.524;2023-02-28T10:12:25;100868.40;;;3.62;86.96
60246;BME280;46107;53.356;-1.524;2023-02-28T10:14:54;100867.35;;;2.40;91.29
60246;BME280;46107;53.356;-1.524;2023-02-28T10:17:36;100873.11;;;2.47;91.70
60246;BME280;46107;53.356;-1.524;2023-02-28T10:20:10;100870.33;;;3.04;91.10
60246;BME280;46107;53.356;-1.524;2023-02-28T10:22:50;100873.70;;;4.14;88.42
60246;BME280;46107;53.356;-1.524;2023-02-28T10:25:21;100875.40;;;3.45;87.26
60246;BME280;46107;53.356;-1.524;2023-02-28T10:27:52;100872.93;;;3.46;87.51
60246;BME280;46107;53.356;-1.524;2023-02-28T10:30:20;100870.13;;;3.97;87.49
60246;BME280;46107;53.356;-1.524;2023-02-28T10:32:51;100862.09;;;4.18;84.46
60246;BME280;46107;53.356;-1.524;2023-02-28T10:35:20;100871.20;;;2.72;89.00
60246;BME280;46107;53.356;-1.524;2023-02-28T10:37:50;100855.47;;;4.15;86.83
60246;BME280;46107;53.356;-1.524;2023-02-28T10:40:29;100855.06;;;4.06;87.07
60246;BME280;46107;53.356;-1.524;2023-02-28T10:42:59;100852.36;;;3.19;86.65
60246;BME280;46107;53.356;-1.524;2023-02-28T10:45:29;100848.53;;;3.64;89.83
60246;BME280;46107;53.356;-1.524;2023-02-28T10:47:59;100850.84;;;3.41;90.67
60246;BME280;46107;53.356;-1.524;2023-02-28T10:50:33;100842.66;;;4.72;83.30
60246;BME280;46107;53.356;-1.524;2023-02-28T10:53:14;100846.61;;;3.89;87.55
60246;BME280;46107;53.356;-1.524;2023-02-28T10:55:43;100841.54;;;4.21;84.72
60246;BME280;46107;53.356;-1.524;2023-02-28T10:58:22;100842.24;;;4.62;81.08
60246;BME280;46107;53.356;-1.524;2023-02-28T11:00:49;100839.44;;;4.74;80.81
60246;BME280;46107;53.356;-1.524;2023-02-28T11:03:30;100843.77;;;3.49;85.17
60246;BME280;46107;53.356;-1.524;2023-02-28T11:05:59;100845.94;;;4.01;84.97
60246;BME280;46107;53.356;-1.524;2023-02-28T11:08:31;100843.60;;;3.80;81.80
60246;BME280;46107;53.356;-1.524;2023-02-28T11:11:04;100850.65;;;3.48;84.93
60246;BME280;46107;53.356;-1.524;2023-02-28T11:13:34;100851.69;;;3.26;84.47
60246;BME280;46107;53.356;-1.524;2023-02-28T11:16:05;100846.39;;;3.46;87.91
60246;BME280;46107;53.356;-1.524;2023-02-28T11:18:39;100839.36;;;4.14;80.93
60246;BME280;46107;53.356;-1.524;2023-02-28T11:21:08;100838.61;;;3.86;83.23
60246;BME280;46107;53.356;-1.524;2023-02-28T11:23:40;100842.08;;;4.57;82.63
60246;BME280;46107;53.356;-1.524;2023-02-28T11:26:08;100841.83;;;4.11;80.02
60246;BME280;46107;53.356;-1.524;2023-02-28T11:28:38;100839.27;;;3.82;80.62
60246;BME280;46107;53.356;-1.524;2023-02-28T11:31:18;100833.19;;;4.51;78.83
60246;BME280;46107;53.356;-1.524;2023-02-28T11:33:48;100835.89;;;4.96;81.28
60246;BME280;46107;53.356;-1.524;2023-02-28T11:36:19;100834.60;;;3.69;82.60
60246;BME280;46107;53.356;-1.524;2023-02-28T11:38:48;100829.18;;;3.80;82.66
60246;BME280;46107;53.356;-1.524;2023-02-28T11:41:28;100824.01;;;5.99;75.94
60246;BME280;46107;53.356;-1.524;2023-02-28T11:44:09;100823.91;;;4.92;78.49
60246;BME280;46107;53.356;-1.524;2023-02-28T11:46:47;100820.21;;;5.21;77.16
60246;BME280;46107;53.356;-1.524;2023-02-28T11:49:30;100819.12;;;3.50;85.08
60246;BME280;46107;53.356;-1.524;2023-02-28T11:52:02;100814.69;;;4.23;82.68
60246;BME280;46107;53.356;-1.524;2023-02-28T11:54:48;100816.31;;;4.41;81.39
60246;BME280;46107;53.356;-1.524;2023-02-28T11:57:31;100803.39;;;5.02;79.66
60246;BME280;46107;53.356;-1.524;2023-02-28T12:00:06;100803.30;;;4.55;78.19
60246;BME280;46107;53.356;-1.524;2023-02-28T12:02:47;100798.62;;;4.98;77.83
60246;BME280;46107;53.356;-1.524;2023-02-28T12:05:25;100799.32;;;4.12;82.28
60246;BME280;46107;53.356;-1.524;2023-02-28T12:08:04;100800.89;;;3.61;86.15
60246;BME280;46107;53.356;-1.524;2023-02-28T12:10:38;100795.63;;;3.74;84.57
60246;BME280;46107;53.356;-1.524;2023-02-28T12:13:18;100793.75;;;3.83;81.56
60246;BME280;46107;53.356;-1.524;2023-02-28T12:15:58;100785.23;;;5.37;79.85
60246;BME280;46107;53.356;-1.524;2023-02-28T12:18:38;100782.02;;;4.82;80.09
60246;BME280;46107;53.356;-1.524;2023-02-28T12:21:17;100777.25;;;4.39;84.30
60246;BME280;46107;53.356;-1.524;2023-02-28T12:24:01;100776.60;;;4.19;79.76
60246;BME280;46107;53.356;-1.524;2023-02-28T12:26:36;100767.70;;;4.86;79.49
60246;BME280;46107;53.356;-1.524;2023-02-28T12:29:13;100768.42;;;5.34;78.91
60246;BME280;46107;53.356;-1.524;2023-02-28T12:31:46;100768.93;;;4.92;81.24
60246;BME280;46107;53.356;-1.524;2023-02-28T12:34:19;100759.39;;;3.75;82.47
60246;BME280;46107;53.356;-1.524;2023-02-28T12:36:49;100759.65;;;4.07;85.60
60246;BME280;46107;53.356;-1.524;2023-02-28T12:39:20;100761.44;;;4.02;84.49
60246;BME280;46107;53.356;-1.524;2023-02-28T12:41:54;100757.16;;;4.20;84.02
60246;BME280;46107;53.356;-1.524;2023-02-28T12:44:30;100750.42;;;3.97;88.66
60246;BME280;46107;53.356;-1.524;2023-02-28T12:47:02;100745.48;;;4.81;85.17
60246;BME280;46107;53.356;-1.524;2023-02-28T12:49:34;100737.91;;;4.80;83.41
60246;BME280;46107;53.356;-1.524;2023-02-28T12:52:05;100735.39;;;4.09;84.41
60246;BME280;46107;53.356;-1.524;2023-02-28T12:54:40;100731.07;;;4.35;79.34
60246;BME280;46107;53.356;-1.524;2023-02-28T12:57:15;100724.58;;;4.54;80.68
60246;BME280;46107;53.356;-1.524;2023-02-28T12:59:49;100720.89;;;4.15;82.26
60246;BME280;46107;53.356;-1.524;2023-02-28T13:03:01;100714.59;;;4.38;82.21
60246;BME280;46107;53.356;-1.524;2023-02-28T13:05:45;100716.04;;;3.73;85.03
60246;BME280;46107;53.356;-1.524;2023-02-28T13:08:31;100712.45;;;3.69;86.41
60246;BME280;46107;53.356;-1.524;2023-02-28T13:11:06;100712.88;;;4.28;86.31
60246;BME280;46107;53.356;-1.524;2023-02-28T13:13:33;100711.19;;;4.35;88.49